createdAt,value
2018-01-08T00:01:01.435Z,7.07
2018-01-08T00:03:30.331Z,7.10
2018-01-08T00:05:59.567Z,7.27
2018-01-08T00:08:28.427Z,8.30
2018-01-08T00:10:57.344Z,9.10
2018-01-08T00:13:28.667Z,8.83
2018-01-08T00:15:58.220Z,7.97
2018-01-08T00:18:31.270Z,9.13
2018-01-08T00:21:00.423Z,7.47
2018-01-08T00:23:29.271Z,6.10
2018-01-08T00:25:58.125Z,7.53
2018-01-08T00:28:27.006Z,8.70
2018-01-08T00:30:55.835Z,8.83
2018-01-08T00:33:24.663Z,8.47
2018-01-08T00:35:53.757Z,7.83
2018-01-08T00:38:22.615Z,8.47
2018-01-08T00:40:51.453Z,8.47
2018-01-08T00:43:20.349Z,8.77
2018-01-08T00:45:49.192Z,8.93
2018-01-08T00:48:18.027Z,9.20
2018-01-08T00:50:47.461Z,8.23
2018-01-08T00:53:16.332Z,10.50
2018-01-08T00:55:45.253Z,9.27
2018-01-08T00:58:14.106Z,8.47
2018-01-08T01:00:42.933Z,9.70
2018-01-08T01:03:12.183Z,8.70
2018-01-08T01:05:41.023Z,9.93
2018-01-08T01:08:09.881Z,11.13
2018-01-08T01:10:38.753Z,9.17
2018-01-08T01:13:07.584Z,7.90
2018-01-08T01:15:36.447Z,9.43
2018-01-08T01:18:05.306Z,9.43
2018-01-08T01:20:34.677Z,9.60
2018-01-08T01:23:03.543Z,10.57
2018-01-08T01:25:32.421Z,11.20
2018-01-08T01:28:01.251Z,9.80
2018-01-08T01:30:30.110Z,11.97
2018-01-08T01:32:59.553Z,10.27
2018-01-08T01:35:28.423Z,8.37
2018-01-08T01:37:57.902Z,10.37
2018-01-08T01:40:26.775Z,9.43
2018-01-08T01:42:55.663Z,9.87
2018-01-08T01:45:24.575Z,9.40
2018-01-08T01:47:53.449Z,10.50
2018-01-08T01:50:22.287Z,8.67
2018-01-08T01:52:51.139Z,9.97
2018-01-08T01:55:20.008Z,9.83
2018-01-08T01:57:48.840Z,9.03
2018-01-08T02:00:18.215Z,8.30
2018-01-08T02:02:47.131Z,11.37
2018-01-08T02:05:15.975Z,10.70
2018-01-08T02:07:44.814Z,9.73
2018-01-08T02:10:14.587Z,10.30
2018-01-08T02:12:43.439Z,9.87
2018-01-08T02:15:12.277Z,9.33
2018-01-08T02:17:41.142Z,9.87
2018-01-08T02:20:09.977Z,11.07
2018-01-08T02:22:38.823Z,10.57
2018-01-08T02:25:07.697Z,12.67
2018-01-08T02:27:36.576Z,10.93
2018-01-08T02:30:05.564Z,11.43
2018-01-08T02:32:35.131Z,10.23
2018-01-08T02:35:04.004Z,8.50
2018-01-08T02:37:32.839Z,11.87
2018-01-08T02:40:01.696Z,10.83
2018-01-08T02:42:30.587Z,11.17
2018-01-08T02:44:59.424Z,8.63
2018-01-08T02:47:28.293Z,10.77
2018-01-08T02:49:57.167Z,9.80
2018-01-08T02:52:26.019Z,12.93
2018-01-08T02:54:54.873Z,9.23
2018-01-08T02:57:23.716Z,10.30
2018-01-08T02:59:52.598Z,9.27
2018-01-08T03:02:21.473Z,9.83
2018-01-08T03:04:50.307Z,11.10
2018-01-08T03:07:19.170Z,10.57
2018-01-08T03:09:48.020Z,10.53
2018-01-08T03:12:17.150Z,9.80
2018-01-08T03:14:46.005Z,11.73
2018-01-08T03:17:15.677Z,10.13
2018-01-08T03:19:44.513Z,12.07
2018-01-08T03:22:13.371Z,11.63
2018-01-08T03:24:42.209Z,10.73
2018-01-08T03:27:11.078Z,10.27
2018-01-08T03:29:39.942Z,11.17
2018-01-08T03:32:08.802Z,12.63
2018-01-08T03:34:37.692Z,11.93
2018-01-08T03:37:07.582Z,11.50
2018-01-08T03:39:36.412Z,9.50
2018-01-08T03:42:05.277Z,10.40
2018-01-08T03:44:34.143Z,11.20
2018-01-08T03:47:02.985Z,9.70
2018-01-08T03:49:31.831Z,11.90
2018-01-08T03:52:00.725Z,9.73
2018-01-08T03:54:29.568Z,10.33
2018-01-08T03:56:58.460Z,11.30
2018-01-08T03:59:27.313Z,12.40
2018-01-08T04:01:56.170Z,11.77
2018-01-08T04:04:25.037Z,11.93
2018-01-08T04:06:54.208Z,11.70
2018-01-08T04:09:23.298Z,10.90
2018-01-08T04:11:52.201Z,10.33
2018-01-08T04:14:21.040Z,12.77
2018-01-08T04:16:49.880Z,11.27
2018-01-08T04:19:18.735Z,12.17
2018-01-08T04:21:47.568Z,13.70
2018-01-08T04:24:16.412Z,13.27
2018-01-08T04:26:45.314Z,12.50
2018-01-08T04:29:14.170Z,9.20
2018-01-08T04:31:43.010Z,11.33
2018-01-08T04:34:11.871Z,10.53
2018-01-08T04:36:40.705Z,12.00
2018-01-08T04:39:09.556Z,12.03
2018-01-08T04:41:38.407Z,12.50
2018-01-08T04:44:07.251Z,11.13
2018-01-08T04:46:36.090Z,10.93
2018-01-08T04:49:04.956Z,11.30
2018-01-08T04:51:34.813Z,11.90
2018-01-08T04:54:03.730Z,12.57
2018-01-08T04:56:32.596Z,10.13
2018-01-08T04:59:01.444Z,11.03
2018-01-08T05:01:31.169Z,11.03
2018-01-08T05:04:00.986Z,12.53
2018-01-08T05:06:31.335Z,10.77
2018-01-08T05:09:00.718Z,11.47
2018-01-08T05:11:29.554Z,12.43
2018-01-08T05:13:58.402Z,12.93
2018-01-08T05:16:27.261Z,10.93
2018-01-08T05:18:56.096Z,11.20
2018-01-08T05:21:24.931Z,12.17
2018-01-08T05:23:54.213Z,13.03
2018-01-08T05:26:23.055Z,10.33
2018-01-08T05:28:51.890Z,12.37
2018-01-08T05:31:20.751Z,14.23
2018-01-08T05:33:49.605Z,12.73
2018-01-08T05:36:18.466Z,14.90
2018-01-08T05:38:47.312Z,11.97
2018-01-08T05:41:16.170Z,13.23
2018-01-08T05:43:44.999Z,12.20
2018-01-08T05:46:15.228Z,11.23
2018-01-08T05:48:44.073Z,10.67
2018-01-08T05:51:12.961Z,12.83
2018-01-08T05:53:42.149Z,13.10
2018-01-08T05:56:10.976Z,9.77
2018-01-08T05:58:40.369Z,12.37
2018-01-08T06:01:09.207Z,11.57
2018-01-08T06:03:38.054Z,12.40
2018-01-08T06:06:06.908Z,12.20
2018-01-08T06:08:35.745Z,13.40
2018-01-08T06:11:04.624Z,13.37
2018-01-08T06:13:33.507Z,13.37
2018-01-08T06:16:02.344Z,13.83
2018-01-08T06:18:31.184Z,13.40
2018-01-08T06:21:00.061Z,11.20
2018-01-08T06:23:28.878Z,12.60
2018-01-08T06:25:58.585Z,13.17
2018-01-08T06:28:27.742Z,11.93
2018-01-08T06:30:56.598Z,11.60
2018-01-08T06:33:25.428Z,12.80
2018-01-08T06:35:54.823Z,11.70
2018-01-08T06:38:23.707Z,14.57
2018-01-08T06:40:52.554Z,13.00
2018-01-08T06:43:21.414Z,13.00
2018-01-08T06:45:50.267Z,12.07
2018-01-08T06:48:19.139Z,14.00
2018-01-08T06:50:47.999Z,13.80
2018-01-08T06:53:17.442Z,14.20
2018-01-08T06:55:46.308Z,10.93
2018-01-08T06:58:15.163Z,13.43
2018-01-08T07:00:44.025Z,9.40
2018-01-08T07:03:12.884Z,12.83
2018-01-08T07:05:41.725Z,12.23
2018-01-08T07:08:10.806Z,13.90
2018-01-08T07:10:39.674Z,14.30
2018-01-08T07:13:08.769Z,13.63
2018-01-08T07:15:37.664Z,14.67
2018-01-08T07:18:06.597Z,12.43
2018-01-08T07:20:35.436Z,14.80
2018-01-08T07:23:04.282Z,15.10
2018-01-08T07:25:33.160Z,10.80
2018-01-08T07:28:02.010Z,16.67
2018-01-08T07:30:30.878Z,11.53
2018-01-08T07:32:59.764Z,13.13
2018-01-08T07:35:28.640Z,13.30
2018-01-08T07:37:57.504Z,16.07
2018-01-08T07:40:26.335Z,12.40
2018-01-08T07:42:55.184Z,13.97
2018-01-08T07:45:24.048Z,12.53
2018-01-08T07:47:52.885Z,12.97
2018-01-08T07:50:21.720Z,11.63
2018-01-08T07:52:51.524Z,13.10
2018-01-08T07:55:20.468Z,14.00
2018-01-08T07:57:49.353Z,14.10
2018-01-08T08:00:18.432Z,13.97
2018-01-08T08:02:47.280Z,14.00
2018-01-08T08:05:18.466Z,13.43
2018-01-08T08:07:49.438Z,15.70
2018-01-08T08:10:22.120Z,13.83
2018-01-08T08:12:56.162Z,10.50
2018-01-08T08:15:25.024Z,15.33
2018-01-08T08:17:53.916Z,13.67
2018-01-08T08:20:26.234Z,14.43
2018-01-08T08:22:57.730Z,11.97
2018-01-08T08:25:28.462Z,13.53
2018-01-08T08:30:42.024Z,14.87
2018-01-08T08:33:11.420Z,13.43
2018-01-08T08:35:40.386Z,13.73
2018-01-08T08:38:09.252Z,14.17
2018-01-08T08:40:38.078Z,8.33
2018-01-08T08:43:06.913Z,10.97
2018-01-08T08:45:35.776Z,13.17
2018-01-08T08:48:05.320Z,15.07
2018-01-08T08:50:35.024Z,13.93
2018-01-08T08:53:03.908Z,14.53
2018-01-08T08:55:32.752Z,12.47
2018-01-08T08:58:01.690Z,13.03
2018-01-08T09:00:31.300Z,14.27
2018-01-08T09:03:00.140Z,15.07
2018-01-08T09:05:28.982Z,11.37
2018-01-08T09:07:57.858Z,14.30
2018-01-08T09:10:26.758Z,12.53
2018-01-08T09:12:55.676Z,13.33
2018-01-08T09:15:24.854Z,13.67
2018-01-08T09:17:54.080Z,11.20
2018-01-08T09:20:25.520Z,12.17
2018-01-08T09:22:55.175Z,11.87
2018-01-08T09:25:24.046Z,14.93
2018-01-08T09:27:52.900Z,14.90
2018-01-08T09:30:21.813Z,14.33
2018-01-08T09:32:50.647Z,13.60
2018-01-08T09:35:19.516Z,14.27
2018-01-08T09:37:49.244Z,13.50
2018-01-08T09:40:18.425Z,13.20
2018-01-08T09:42:47.944Z,12.80
2018-01-08T09:45:16.917Z,11.23
2018-01-08T09:47:46.155Z,12.30
2018-01-08T09:50:15.026Z,12.87
2018-01-08T09:52:47.780Z,14.10
2018-01-08T09:58:01.040Z,13.03
2018-01-08T10:00:29.912Z,14.83
2018-01-08T10:03:04.680Z,13.83
2018-01-08T10:05:39.474Z,12.90
2018-01-08T10:10:58.102Z,13.00
2018-01-08T10:13:36.376Z,11.73
2018-01-08T10:16:11.985Z,11.70
2018-01-08T10:18:40.593Z,13.47
2018-01-08T10:21:09.678Z,15.93
2018-01-08T10:23:38.538Z,13.13
2018-01-08T10:26:07.372Z,13.73
2018-01-08T10:28:36.268Z,12.03
2018-01-08T10:31:05.162Z,15.07
2018-01-08T10:33:34.620Z,14.40
2018-01-08T10:36:03.442Z,13.43
2018-01-08T10:38:32.316Z,12.93
2018-01-08T10:41:00.790Z,16.70
2018-01-08T10:43:35.404Z,14.30
2018-01-08T10:46:09.958Z,13.20
2018-01-08T10:48:44.500Z,15.50
2018-01-08T10:51:19.135Z,14.07
2018-01-08T10:53:48.013Z,15.93
2018-01-08T10:56:16.898Z,13.63
2018-01-08T10:58:45.732Z,15.97
2018-01-08T11:01:20.990Z,13.43
2018-01-08T11:03:55.459Z,15.87
2018-01-08T11:06:25.232Z,14.70
2018-01-08T11:08:55.534Z,16.00
2018-01-08T11:11:24.422Z,16.53
2018-01-08T11:13:53.295Z,14.70
2018-01-08T11:16:22.137Z,13.57
2018-01-08T11:18:51.604Z,13.90
2018-01-08T11:21:20.472Z,15.23
2018-01-08T11:23:50.340Z,13.03
2018-01-08T11:26:19.174Z,15.53
2018-01-08T11:28:48.070Z,14.37
2018-01-08T11:31:17.900Z,14.50
2018-01-08T11:33:46.773Z,14.07
2018-01-08T11:36:15.643Z,15.57
2018-01-08T11:38:44.478Z,14.43
2018-01-08T11:41:13.837Z,13.90
2018-01-08T11:43:43.760Z,18.03
2018-01-08T11:46:13.308Z,14.47
2018-01-08T11:48:42.168Z,15.27
2018-01-08T11:51:11.168Z,14.40
2018-01-08T11:53:40.432Z,14.63
2018-01-08T11:56:09.278Z,14.60
2018-01-08T11:58:38.131Z,14.83
2018-01-08T12:01:10.912Z,14.50
2018-01-08T12:03:39.777Z,14.13
2018-01-08T12:06:08.644Z,15.70
2018-01-08T12:08:38.017Z,13.70
2018-01-08T12:11:06.892Z,14.47
2018-01-08T12:13:35.787Z,17.63
2018-01-08T12:16:04.654Z,15.93
2018-01-08T12:18:34.347Z,14.83
2018-01-08T12:21:03.204Z,14.60
2018-01-08T12:23:32.045Z,14.87
2018-01-08T12:26:01.915Z,15.87
2018-01-08T12:28:31.792Z,13.50
2018-01-08T12:31:00.674Z,14.03
2018-01-08T12:33:30.466Z,15.27
2018-01-08T12:35:59.337Z,14.83
2018-01-08T12:38:28.809Z,17.00
2018-01-08T12:40:58.974Z,16.50
2018-01-08T12:43:27.864Z,15.17
2018-01-08T12:45:56.662Z,17.00
2018-01-08T12:48:25.538Z,14.87
2018-01-08T12:50:55.173Z,15.47
2018-01-08T12:53:24.002Z,13.90
2018-01-08T12:55:52.900Z,16.40
2018-01-08T12:58:21.756Z,16.17
2018-01-08T13:00:50.612Z,15.37
2018-01-08T13:03:19.488Z,15.53
2018-01-08T13:05:48.329Z,14.33
2018-01-08T13:08:17.181Z,14.73
2018-01-08T13:10:46.041Z,16.37
2018-01-08T13:13:15.642Z,14.33
2018-01-08T13:15:44.529Z,15.17
2018-01-08T13:18:13.413Z,15.20
2018-01-08T13:20:42.251Z,16.67
2018-01-08T13:23:11.114Z,16.27
2018-01-08T13:25:39.984Z,14.80
2018-01-08T13:28:08.875Z,15.47
2018-01-08T13:30:37.796Z,17.90
2018-01-08T13:33:06.679Z,17.70
2018-01-08T13:35:36.210Z,13.90
2018-01-08T13:38:05.052Z,16.63
2018-01-08T13:40:35.543Z,14.80
2018-01-08T13:43:04.463Z,13.90
2018-01-08T13:45:33.365Z,13.97
2018-01-08T13:48:02.249Z,14.20
2018-01-08T13:50:31.756Z,14.97
2018-01-08T13:53:00.602Z,15.37
2018-01-08T13:55:30.039Z,16.13
2018-01-08T13:57:58.907Z,16.33
2018-01-08T14:00:27.801Z,17.40
2018-01-08T14:02:59.558Z,17.60
2018-01-08T14:05:28.420Z,15.20
2018-01-08T14:07:57.273Z,16.60
2018-01-08T14:10:26.158Z,16.50
2018-01-08T14:12:55.745Z,13.57
2018-01-08T14:15:24.585Z,16.40
2018-01-08T14:17:53.464Z,16.00
2018-01-08T14:20:22.332Z,16.73
2018-01-08T14:22:51.195Z,16.57
2018-01-08T14:25:20.060Z,16.93
2018-01-08T14:27:48.998Z,14.67
2018-01-08T14:30:17.997Z,15.00
2018-01-08T14:32:47.232Z,15.10
2018-01-08T14:35:17.149Z,20.77
2018-01-08T14:37:46.719Z,18.23
2018-01-08T14:40:17.471Z,15.67
2018-01-08T14:42:46.744Z,13.60
2018-01-08T14:45:15.627Z,16.53
2018-01-08T14:47:44.491Z,15.47
2018-01-08T14:50:13.361Z,15.90
2018-01-08T14:52:44.031Z,16.37
2018-01-08T14:55:12.932Z,16.87
2018-01-08T14:57:42.555Z,17.63
2018-01-08T15:00:12.215Z,18.90
2018-01-08T15:02:41.067Z,15.17
2018-01-08T15:05:09.917Z,16.57
2018-01-08T15:07:38.800Z,16.90
2018-01-08T15:10:07.663Z,15.13
2018-01-08T15:12:37.053Z,14.90
2018-01-08T15:15:05.953Z,15.07
2018-01-08T15:17:35.950Z,16.87
2018-01-08T15:20:04.823Z,17.97
2018-01-08T15:22:34.901Z,11.87
2018-01-08T15:25:03.735Z,15.03
2018-01-08T15:27:32.681Z,19.03
2018-01-08T15:30:01.583Z,20.33
2018-01-08T15:32:31.527Z,17.40
2018-01-08T15:35:01.174Z,16.00
2018-01-08T15:37:30.373Z,16.13
2018-01-08T15:39:59.217Z,16.43
2018-01-08T15:42:28.064Z,17.93
2018-01-08T15:44:57.167Z,17.10
2018-01-08T15:47:26.010Z,19.87
2018-01-08T15:49:54.898Z,19.83
2018-01-08T15:52:24.729Z,17.43
2018-01-08T15:54:53.615Z,17.70
2018-01-08T15:57:22.463Z,16.83
2018-01-08T15:59:52.916Z,16.20
2018-01-08T16:02:21.761Z,15.83
2018-01-08T16:04:51.256Z,15.57
2018-01-08T16:07:20.121Z,15.67
2018-01-08T16:09:48.971Z,13.47
2018-01-08T16:12:19.391Z,17.07
2018-01-08T16:14:49.153Z,16.47
2018-01-08T16:17:18.000Z,15.80
2018-01-08T16:19:47.155Z,16.90
2018-01-08T16:22:16.009Z,15.00
2018-01-08T16:24:44.952Z,15.63
2018-01-08T16:27:13.898Z,15.13
2018-01-08T16:29:42.763Z,17.53
2018-01-08T16:32:12.523Z,17.27
2018-01-08T16:34:41.390Z,16.00
2018-01-08T16:37:11.808Z,15.13
2018-01-08T16:39:40.997Z,15.27
2018-01-08T16:42:11.834Z,13.83
2018-01-08T16:44:40.731Z,17.30
2018-01-08T16:47:09.607Z,19.13
2018-01-08T16:49:39.655Z,17.03
2018-01-08T16:52:08.504Z,16.13
2018-01-08T16:54:39.013Z,17.40
2018-01-08T16:57:07.950Z,16.57
2018-01-08T16:59:36.790Z,21.37
2018-01-08T17:02:05.647Z,14.93
2018-01-08T17:04:35.247Z,19.37
2018-01-08T17:07:04.119Z,19.70
2018-01-08T17:12:14.208Z,16.00
2018-01-08T17:17:34.558Z,17.30
2018-01-08T17:20:06.108Z,16.43
2018-01-08T17:22:35.293Z,16.10
2018-01-08T17:25:04.984Z,18.57
2018-01-08T17:27:34.572Z,17.33
2018-01-08T17:30:03.469Z,20.60
2018-01-08T17:35:15.302Z,18.77
2018-01-08T17:37:44.169Z,17.67
2018-01-08T17:42:48.902Z,16.20
2018-01-08T17:45:20.576Z,17.77
2018-01-08T17:47:51.666Z,18.47
2018-01-08T17:50:20.621Z,17.33
2018-01-08T17:52:49.508Z,20.13
2018-01-08T17:55:18.347Z,30.57
2018-01-08T17:57:47.184Z,29.00
2018-01-08T18:00:16.134Z,27.23
2018-01-08T18:02:45.112Z,19.43
2018-01-08T18:05:14.174Z,20.03
2018-01-08T18:07:43.062Z,16.20
2018-01-08T18:10:11.926Z,17.83
2018-01-08T18:12:42.242Z,19.90
2018-01-08T18:15:12.008Z,30.10
2018-01-08T18:17:40.880Z,22.63
2018-01-08T18:20:11.655Z,17.23
2018-01-08T18:22:40.526Z,18.43
2018-01-08T18:25:09.636Z,19.33
2018-01-08T18:27:38.486Z,18.77
2018-01-08T18:30:07.360Z,20.13
2018-01-08T18:32:36.622Z,21.67
2018-01-08T18:35:06.423Z,18.27
2018-01-08T18:37:35.306Z,18.77
2018-01-08T18:40:04.160Z,26.30
2018-01-08T18:42:33.029Z,20.43
2018-01-08T18:45:02.990Z,17.53
2018-01-08T18:47:31.853Z,19.10
2018-01-08T18:50:00.723Z,20.53
2018-01-08T18:52:29.651Z,21.73
2018-01-08T18:54:58.518Z,18.63
2018-01-08T18:57:28.122Z,21.90
2018-01-08T18:59:57.792Z,21.77
2018-01-08T19:02:26.686Z,20.50
2018-01-08T19:04:55.553Z,20.83
2018-01-08T19:07:24.480Z,21.17
2018-01-08T19:09:53.356Z,20.53
2018-01-08T19:12:22.568Z,18.87
2018-01-08T19:14:51.465Z,20.03
2018-01-08T19:17:20.312Z,20.10
2018-01-08T19:19:49.163Z,20.83
2018-01-08T19:22:18.036Z,21.63
2018-01-08T19:24:46.902Z,26.57
2018-01-08T19:27:17.432Z,40.33
2018-01-08T19:29:47.231Z,31.50
2018-01-08T19:32:17.841Z,23.43
2018-01-08T19:34:48.576Z,22.73
2018-01-08T19:39:57.902Z,22.33
2018-01-08T19:45:01.396Z,23.43
2018-01-08T19:47:32.194Z,42.47
2018-01-08T19:50:05.095Z,20.90
2018-01-08T19:52:34.394Z,25.20
2018-01-08T19:55:03.725Z,21.50
2018-01-08T19:57:33.135Z,18.93
2018-01-08T20:00:04.738Z,20.53
2018-01-08T20:02:36.318Z,20.30
2018-01-08T20:05:05.364Z,20.20
2018-01-08T20:10:12.120Z,22.93
2018-01-08T20:12:41.525Z,19.43
2018-01-08T20:15:11.725Z,19.80
2018-01-08T20:17:40.588Z,22.10
2018-01-08T20:20:09.469Z,19.20
2018-01-08T20:22:38.323Z,17.70
2018-01-08T20:25:07.194Z,19.17
2018-01-08T20:27:36.060Z,22.93
2018-01-08T20:30:04.932Z,20.00
2018-01-08T20:32:33.855Z,17.20
2018-01-08T20:35:03.381Z,24.63
2018-01-08T20:37:32.196Z,25.33
2018-01-08T20:40:01.597Z,20.80
2018-01-08T20:42:30.494Z,21.23
2018-01-08T20:44:59.349Z,21.57
2018-01-08T20:47:32.205Z,19.83
2018-01-08T20:50:01.366Z,20.30
2018-01-08T20:52:30.492Z,21.33
2018-01-08T20:55:00.033Z,25.10
2018-01-08T20:57:31.322Z,20.90
2018-01-08T21:00:00.176Z,21.77
2018-01-08T21:02:30.296Z,20.47
2018-01-08T21:07:34.060Z,18.93
2018-01-08T21:10:10.260Z,22.83
2018-01-08T21:12:41.075Z,23.93
2018-01-08T21:15:10.774Z,20.93
2018-01-08T21:17:52.342Z,22.73
2018-01-08T21:20:23.138Z,22.33
2018-01-08T21:22:56.013Z,21.33
2018-01-08T21:25:24.909Z,24.00
2018-01-08T21:27:54.552Z,23.03
2018-01-08T21:30:25.468Z,22.83
2018-01-08T21:35:50.484Z,21.17
2018-01-08T21:38:21.016Z,21.97
2018-01-08T21:40:51.319Z,23.50
2018-01-08T21:43:20.880Z,24.73
2018-01-08T21:45:50.813Z,23.30
2018-01-08T21:48:20.502Z,27.93
2018-01-08T21:50:49.410Z,27.77
2018-01-08T21:53:25.978Z,25.63
2018-01-08T21:56:11.168Z,23.73
2018-01-08T21:58:47.133Z,26.60
2018-01-08T22:01:16.646Z,23.73
2018-01-08T22:03:46.536Z,24.70
2018-01-08T22:06:17.368Z,28.27
2018-01-08T22:08:47.163Z,23.90
2018-01-08T22:11:21.914Z,25.17
2018-01-08T22:13:51.066Z,24.17
2018-01-08T22:19:25.078Z,28.20
2018-01-08T22:22:01.692Z,24.57
2018-01-08T22:24:31.226Z,25.50
2018-01-08T22:29:38.122Z,23.37
2018-01-08T22:32:07.194Z,26.57
2018-01-08T22:34:36.258Z,24.93
2018-01-08T22:37:05.166Z,26.43
2018-01-08T22:39:34.158Z,27.83
2018-01-08T22:42:09.954Z,26.50
2018-01-08T22:44:38.867Z,26.93
2018-01-08T22:47:10.356Z,25.67
2018-01-08T22:49:40.462Z,26.20
2018-01-08T22:52:13.730Z,26.13
2018-01-08T22:54:42.622Z,23.63
2018-01-08T22:57:12.237Z,28.80
2018-01-08T22:59:48.134Z,25.03
2018-01-08T23:02:18.252Z,28.23
2018-01-08T23:04:47.145Z,28.03
2018-01-08T23:07:15.984Z,32.47
2018-01-08T23:09:44.834Z,24.57
2018-01-08T23:12:17.083Z,25.70
2018-01-08T23:14:45.914Z,23.93
2018-01-08T23:17:16.816Z,29.03
2018-01-08T23:19:46.654Z,29.40
2018-01-08T23:22:15.528Z,30.07
2018-01-08T23:24:44.404Z,28.07
2018-01-08T23:27:13.608Z,25.70
2018-01-08T23:29:42.449Z,28.50
2018-01-08T23:32:12.244Z,29.27
2018-01-08T23:34:41.104Z,26.33
2018-01-08T23:37:09.962Z,27.43
2018-01-08T23:39:38.802Z,27.30
2018-01-08T23:42:08.582Z,32.00
2018-01-08T23:44:38.556Z,31.60
2018-01-08T23:47:07.412Z,26.93
2018-01-08T23:49:36.256Z,29.53
2018-01-08T23:52:05.118Z,21.17
2018-01-08T23:54:34.070Z,28.60
2018-01-08T23:57:03.547Z,29.40
2018-01-08T23:59:32.404Z,26.07
